sensor_id;sensor_type;location;lat;lon;timestamp;P1;durP1;ratioP1;P2;durP2;ratioP2
6388;SDS011;3227;42.654;23.360;2024-01-07T00:00:04;7.97;;;4.40;;
6388;SDS011;3227;42.654;23.360;2024-01-07T00:02:32;9.20;;;3.40;;
6388;SDS011;3227;42.654;23.360;2024-01-07T00:04:58;7.53;;;3.63;;
6388;SDS011;3227;42.654;23.360;2024-01-07T00:07:26;6.47;;;3.90;;
6388;SDS011;3227;42.654;23.360;2024-01-07T00:09:53;6.70;;;3.93;;
6388;SDS011;3227;42.654;23.360;2024-01-07T00:12:25;7.70;;;3.90;;
6388;SDS011;3227;42.654;23.360;2024-01-07T00:14:53;7.57;;;4.17;;
6388;SDS011;3227;42.654;23.360;2024-01-07T00:17:20;9.37;;;3.90;;
6388;SDS011;3227;42.654;23.360;2024-01-07T00:19:47;7.33;;;3.77;;
6388;SDS011;3227;42.654;23.360;2024-01-07T00:22:13;9.03;;;4.27;;
6388;SDS011;3227;42.654;23.360;2024-01-07T00:24:40;7.40;;;3.87;;
6388;SDS011;3227;42.654;23.360;2024-01-07T00:27:07;7.50;;;4.07;;
6388;SDS011;3227;42.654;23.360;2024-01-07T00:29:34;8.10;;;4.30;;
6388;SDS011;3227;42.654;23.360;2024-01-07T00:32:02;7.73;;;3.73;;
6388;SDS011;3227;42.654;23.360;2024-01-07T00:34:29;7.27;;;4.17;;
6388;SDS011;3227;42.654;23.360;2024-01-07T00:36:56;6.27;;;3.53;;
6388;SDS011;3227;42.654;23.360;2024-01-07T00:39:24;7.30;;;3.80;;
6388;SDS011;3227;42.654;23.360;2024-01-07T00:41:50;6.87;;;3.70;;
6388;SDS011;3227;42.654;23.360;2024-01-07T00:44:17;11.93;;;4.73;;
6388;SDS011;3227;42.654;23.360;2024-01-07T00:46:44;9.87;;;5.70;;
6388;SDS011;3227;42.654;23.360;2024-01-07T00:49:12;13.03;;;7.67;;
6388;SDS011;3227;42.654;23.360;2024-01-07T00:51:39;16.57;;;8.60;;
6388;SDS011;3227;42.654;23.360;2024-01-07T00:54:05;16.27;;;9.17;;
6388;SDS011;3227;42.654;23.360;2024-01-07T00:56:32;18.07;;;9.77;;
6388;SDS011;3227;42.654;23.360;2024-01-07T00:58:59;19.37;;;9.03;;
6388;SDS011;3227;42.654;23.360;2024-01-07T01:04:44;16.00;;;9.67;;
6388;SDS011;3227;42.654;23.360;2024-01-07T01:07:11;16.90;;;9.50;;
6388;SDS011;3227;42.654;23.360;2024-01-07T01:09:38;17.57;;;9.97;;
6388;SDS011;3227;42.654;23.360;2024-01-07T01:12:05;16.50;;;10.13;;
6388;SDS011;3227;42.654;23.360;2024-01-07T01:14:32;17.60;;;9.53;;
6388;SDS011;3227;42.654;23.360;2024-01-07T01:16:59;19.50;;;10.47;;
6388;SDS011;3227;42.654;23.360;2024-01-07T01:19:25;16.97;;;9.77;;
6388;SDS011;3227;42.654;23.360;2024-01-07T01:21:53;20.10;;;10.40;;
6388;SDS011;3227;42.654;23.360;2024-01-07T01:24:20;21.40;;;10.83;;
6388;SDS011;3227;42.654;23.360;2024-01-07T01:26:47;22.10;;;10.13;;
6388;SDS011;3227;42.654;23.360;2024-01-07T01:29:14;19.80;;;10.63;;
6388;SDS011;3227;42.654;23.360;2024-01-07T01:31:46;18.47;;;11.40;;
6388;SDS011;3227;42.654;23.360;2024-01-07T01:34:13;19.77;;;11.40;;
6388;SDS011;3227;42.654;23.360;2024-01-07T01:36:39;22.40;;;10.10;;
6388;SDS011;3227;42.654;23.360;2024-01-07T01:39:07;19.00;;;10.37;;
6388;SDS011;3227;42.654;23.360;2024-01-07T01:41:34;18.20;;;9.23;;
6388;SDS011;3227;42.654;23.360;2024-01-07T01:44:02;17.20;;;9.60;;
6388;SDS011;3227;42.654;23.360;2024-01-07T01:46:29;12.87;;;7.00;;
6388;SDS011;3227;42.654;23.360;2024-01-07T01:48:56;18.97;;;8.40;;
6388;SDS011;3227;42.654;23.360;2024-01-07T01:51:23;11.40;;;7.07;;
6388;SDS011;3227;42.654;23.360;2024-01-07T01:53:50;12.43;;;6.00;;
6388;SDS011;3227;42.654;23.360;2024-01-07T01:56:19;10.53;;;6.13;;
6388;SDS011;3227;42.654;23.360;2024-01-07T01:58:46;12.10;;;6.50;;
6388;SDS011;3227;42.654;23.360;2024-01-07T02:01:18;11.83;;;6.53;;
6388;SDS011;3227;42.654;23.360;2024-01-07T02:03:45;9.73;;;5.77;;
6388;SDS011;3227;42.654;23.360;2024-01-07T02:06:12;10.27;;;5.77;;
6388;SDS011;3227;42.654;23.360;2024-01-07T02:08:39;10.43;;;4.90;;
6388;SDS011;3227;42.654;23.360;2024-01-07T02:14:24;7.17;;;4.43;;
6388;SDS011;3227;42.654;23.360;2024-01-07T02:16:51;9.93;;;4.70;;
6388;SDS011;3227;42.654;23.360;2024-01-07T02:19:18;8.30;;;4.43;;
6388;SDS011;3227;42.654;23.360;2024-01-07T02:21:46;8.43;;;4.50;;
6388;SDS011;3227;42.654;23.360;2024-01-07T02:24:16;8.53;;;4.73;;
6388;SDS011;3227;42.654;23.360;2024-01-07T02:26:43;10.77;;;5.20;;
6388;SDS011;3227;42.654;23.360;2024-01-07T02:29:09;7.37;;;4.10;;
6388;SDS011;3227;42.654;23.360;2024-01-07T02:31:36;7.67;;;4.10;;
6388;SDS011;3227;42.654;23.360;2024-01-07T02:34:03;9.57;;;4.30;;
6388;SDS011;3227;42.654;23.360;2024-01-07T02:36:30;10.27;;;5.10;;
6388;SDS011;3227;42.654;23.360;2024-01-07T02:38:56;10.70;;;5.37;;
6388;SDS011;3227;42.654;23.360;2024-01-07T02:41:24;7.53;;;3.90;;
6388;SDS011;3227;42.654;23.360;2024-01-07T02:43:53;8.23;;;4.70;;
6388;SDS011;3227;42.654;23.360;2024-01-07T02:46:19;6.97;;;3.70;;
6388;SDS011;3227;42.654;23.360;2024-01-07T02:48:47;6.87;;;3.70;;
6388;SDS011;3227;42.654;23.360;2024-01-07T02:51:29;8.57;;;4.30;;
6388;SDS011;3227;42.654;23.360;2024-01-07T02:53:55;5.87;;;3.13;;
6388;SDS011;3227;42.654;23.360;2024-01-07T02:56:22;7.80;;;3.50;;
6388;SDS011;3227;42.654;23.360;2024-01-07T02:58:50;5.57;;;3.20;;
6388;SDS011;3227;42.654;23.360;2024-01-07T03:01:27;6.00;;;3.50;;
6388;SDS011;3227;42.654;23.360;2024-01-07T03:03:54;5.27;;;3.10;;
6388;SDS011;3227;42.654;23.360;2024-01-07T03:06:21;6.23;;;3.00;;
6388;SDS011;3227;42.654;23.360;2024-01-07T03:08:48;7.40;;;3.00;;
6388;SDS011;3227;42.654;23.360;2024-01-07T03:11:14;8.10;;;3.00;;
6388;SDS011;3227;42.654;23.360;2024-01-07T03:13:41;7.67;;;3.30;;
6388;SDS011;3227;42.654;23.360;2024-01-07T03:16:18;4.67;;;2.90;;
6388;SDS011;3227;42.654;23.360;2024-01-07T03:18:45;6.83;;;3.57;;
6388;SDS011;3227;42.654;23.360;2024-01-07T03:21:16;5.97;;;3.40;;
6388;SDS011;3227;42.654;23.360;2024-01-07T03:23:43;4.93;;;3.13;;
6388;SDS011;3227;42.654;23.360;2024-01-07T03:26:10;6.50;;;3.30;;
6388;SDS011;3227;42.654;23.360;2024-01-07T03:28:37;5.57;;;3.27;;
6388;SDS011;3227;42.654;23.360;2024-01-07T03:31:04;5.73;;;3.40;;
6388;SDS011;3227;42.654;23.360;2024-01-07T03:33:33;5.63;;;3.20;;
6388;SDS011;3227;42.654;23.360;2024-01-07T03:36:00;6.37;;;2.97;;
6388;SDS011;3227;42.654;23.360;2024-01-07T03:38:26;6.77;;;3.37;;
6388;SDS011;3227;42.654;23.360;2024-01-07T03:43:45;5.53;;;3.30;;
6388;SDS011;3227;42.654;23.360;2024-01-07T03:46:12;7.27;;;3.60;;
6388;SDS011;3227;42.654;23.360;2024-01-07T03:48:41;6.93;;;3.80;;
6388;SDS011;3227;42.654;23.360;2024-01-07T03:51:09;6.23;;;3.27;;
6388;SDS011;3227;42.654;23.360;2024-01-07T03:53:35;5.80;;;3.33;;
6388;SDS011;3227;42.654;23.360;2024-01-07T03:56:02;7.60;;;3.67;;
6388;SDS011;3227;42.654;23.360;2024-01-07T03:58:29;9.40;;;4.63;;
6388;SDS011;3227;42.654;23.360;2024-01-07T04:00:56;9.03;;;5.37;;
6388;SDS011;3227;42.654;23.360;2024-01-07T04:03:23;11.00;;;5.97;;
6388;SDS011;3227;42.654;23.360;2024-01-07T04:05:51;12.00;;;6.33;;
6388;SDS011;3227;42.654;23.360;2024-01-07T04:08:18;11.90;;;6.53;;
6388;SDS011;3227;42.654;23.360;2024-01-07T04:10:45;10.23;;;6.63;;
6388;SDS011;3227;42.654;23.360;2024-01-07T04:13:11;12.07;;;6.53;;
6388;SDS011;3227;42.654;23.360;2024-01-07T04:15:38;15.10;;;7.60;;
6388;SDS011;3227;42.654;23.360;2024-01-07T04:18:05;14.30;;;7.53;;
6388;SDS011;3227;42.654;23.360;2024-01-07T04:20:31;12.53;;;6.87;;
6388;SDS011;3227;42.654;23.360;2024-01-07T04:23:10;11.33;;;5.97;;
6388;SDS011;3227;42.654;23.360;2024-01-07T04:25:36;11.00;;;5.67;;
6388;SDS011;3227;42.654;23.360;2024-01-07T04:28:05;10.33;;;6.30;;
6388;SDS011;3227;42.654;23.360;2024-01-07T04:30:31;10.40;;;6.17;;
6388;SDS011;3227;42.654;23.360;2024-01-07T04:32:58;12.60;;;6.63;;
6388;SDS011;3227;42.654;23.360;2024-01-07T04:35:25;11.40;;;6.53;;
6388;SDS011;3227;42.654;23.360;2024-01-07T04:37:52;10.57;;;6.17;;
6388;SDS011;3227;42.654;23.360;2024-01-07T04:40:20;15.23;;;6.17;;
6388;SDS011;3227;42.654;23.360;2024-01-07T04:42:47;14.17;;;5.93;;
6388;SDS011;3227;42.654;23.360;2024-01-07T04:45:13;10.80;;;5.63;;
6388;SDS011;3227;42.654;23.360;2024-01-07T04:47:40;14.70;;;5.93;;
6388;SDS011;3227;42.654;23.360;2024-01-07T04:50:07;9.90;;;5.13;;
6388;SDS011;3227;42.654;23.360;2024-01-07T04:52:34;13.83;;;5.50;;
6388;SDS011;3227;42.654;23.360;2024-01-07T04:55:01;8.23;;;4.90;;
6388;SDS011;3227;42.654;23.360;2024-01-07T04:57:29;11.77;;;5.40;;
6388;SDS011;3227;42.654;23.360;2024-01-07T04:59:56;9.83;;;5.90;;
6388;SDS011;3227;42.654;23.360;2024-01-07T05:02:27;11.77;;;6.23;;
6388;SDS011;3227;42.654;23.360;2024-01-07T05:04:54;8.60;;;5.17;;
6388;SDS011;3227;42.654;23.360;2024-01-07T05:07:21;10.23;;;5.00;;
6388;SDS011;3227;42.654;23.360;2024-01-07T05:09:48;11.20;;;5.33;;
6388;SDS011;3227;42.654;23.360;2024-01-07T05:12:14;9.53;;;5.30;;
6388;SDS011;3227;42.654;23.360;2024-01-07T05:14:42;9.13;;;5.23;;
6388;SDS011;3227;42.654;23.360;2024-01-07T05:17:11;11.23;;;5.57;;
6388;SDS011;3227;42.654;23.360;2024-01-07T05:19:39;11.57;;;5.40;;
6388;SDS011;3227;42.654;23.360;2024-01-07T05:22:06;9.53;;;4.67;;
6388;SDS011;3227;42.654;23.360;2024-01-07T05:24:33;8.70;;;5.27;;
6388;SDS011;3227;42.654;23.360;2024-01-07T05:27:00;8.20;;;4.60;;
6388;SDS011;3227;42.654;23.360;2024-01-07T05:29:26;10.03;;;5.60;;
6388;SDS011;3227;42.654;23.360;2024-01-07T05:32:05;10.37;;;5.43;;
6388;SDS011;3227;42.654;23.360;2024-01-07T05:34:32;13.20;;;5.47;;
6388;SDS011;3227;42.654;23.360;2024-01-07T05:36:59;10.00;;;5.30;;
6388;SDS011;3227;42.654;23.360;2024-01-07T05:39:26;13.43;;;5.60;;
6388;SDS011;3227;42.654;23.360;2024-01-07T05:42:09;10.43;;;5.80;;
6388;SDS011;3227;42.654;23.360;2024-01-07T05:44:36;10.13;;;6.00;;
6388;SDS011;3227;42.654;23.360;2024-01-07T05:47:04;9.87;;;5.90;;
6388;SDS011;3227;42.654;23.360;2024-01-07T05:49:31;12.80;;;6.23;;
6388;SDS011;3227;42.654;23.360;2024-01-07T05:52:03;9.43;;;6.07;;
6388;SDS011;3227;42.654;23.360;2024-01-07T05:54:30;9.33;;;5.50;;
6388;SDS011;3227;42.654;23.360;2024-01-07T05:56:57;14.93;;;5.83;;
6388;SDS011;3227;42.654;23.360;2024-01-07T05:59:24;12.97;;;6.50;;
6388;SDS011;3227;42.654;23.360;2024-01-07T06:01:50;9.50;;;5.70;;
6388;SDS011;3227;42.654;23.360;2024-01-07T06:04:19;11.33;;;6.43;;
6388;SDS011;3227;42.654;23.360;2024-01-07T06:06:45;12.87;;;6.23;;
6388;SDS011;3227;42.654;23.360;2024-01-07T06:09:12;9.90;;;5.70;;
6388;SDS011;3227;42.654;23.360;2024-01-07T06:11:39;10.00;;;5.50;;
6388;SDS011;3227;42.654;23.360;2024-01-07T06:14:05;12.87;;;6.43;;
6388;SDS011;3227;42.654;23.360;2024-01-07T06:16:32;12.80;;;6.90;;
6388;SDS011;3227;42.654;23.360;2024-01-07T06:18:59;12.00;;;6.67;;
6388;SDS011;3227;42.654;23.360;2024-01-07T06:21:27;12.13;;;6.33;;
6388;SDS011;3227;42.654;23.360;2024-01-07T06:23:54;9.60;;;5.97;;
6388;SDS011;3227;42.654;23.360;2024-01-07T06:26:21;12.10;;;6.73;;
6388;SDS011;3227;42.654;23.360;2024-01-07T06:28:47;12.67;;;6.90;;
6388;SDS011;3227;42.654;23.360;2024-01-07T06:31:15;13.07;;;7.27;;
6388;SDS011;3227;42.654;23.360;2024-01-07T06:33:42;14.27;;;7.43;;
6388;SDS011;3227;42.654;23.360;2024-01-07T06:36:08;12.97;;;7.50;;
6388;SDS011;3227;42.654;23.360;2024-01-07T06:38:36;13.83;;;7.63;;
6388;SDS011;3227;42.654;23.360;2024-01-07T06:41:03;11.83;;;7.53;;
6388;SDS011;3227;42.654;23.360;2024-01-07T06:43:30;14.03;;;8.07;;
6388;SDS011;3227;42.654;23.360;2024-01-07T06:45:57;16.07;;;7.77;;
6388;SDS011;3227;42.654;23.360;2024-01-07T06:48:24;13.60;;;7.73;;
6388;SDS011;3227;42.654;23.360;2024-01-07T06:50:51;12.17;;;6.57;;
6388;SDS011;3227;42.654;23.360;2024-01-07T06:53:18;10.33;;;7.03;;
6388;SDS011;3227;42.654;23.360;2024-01-07T06:55:45;18.83;;;8.23;;
6388;SDS011;3227;42.654;23.360;2024-01-07T06:58:12;13.90;;;7.83;;
6388;SDS011;3227;42.654;23.360;2024-01-07T07:00:38;11.07;;;6.83;;
6388;SDS011;3227;42.654;23.360;2024-01-07T07:03:10;10.83;;;6.27;;
6388;SDS011;3227;42.654;23.360;2024-01-07T07:05:37;13.50;;;7.80;;
6388;SDS011;3227;42.654;23.360;2024-01-07T07:08:04;13.77;;;8.13;;
6388;SDS011;3227;42.654;23.360;2024-01-07T07:10:31;13.03;;;7.50;;
6388;SDS011;3227;42.654;23.360;2024-01-07T07:12:59;13.57;;;8.10;;
6388;SDS011;3227;42.654;23.360;2024-01-07T07:15:27;12.13;;;7.00;;
6388;SDS011;3227;42.654;23.360;2024-01-07T07:17:54;16.83;;;8.07;;
6388;SDS011;3227;42.654;23.360;2024-01-07T07:20:21;13.37;;;7.23;;
6388;SDS011;3227;42.654;23.360;2024-01-07T07:22:52;12.60;;;7.10;;
6388;SDS011;3227;42.654;23.360;2024-01-07T07:25:19;13.90;;;6.77;;
6388;SDS011;3227;42.654;23.360;2024-01-07T07:27:46;12.77;;;7.50;;
6388;SDS011;3227;42.654;23.360;2024-01-07T07:30:15;14.87;;;7.13;;
6388;SDS011;3227;42.654;23.360;2024-01-07T07:32:42;10.27;;;6.30;;
6388;SDS011;3227;42.654;23.360;2024-01-07T07:35:09;15.00;;;6.67;;
6388;SDS011;3227;42.654;23.360;2024-01-07T07:37:36;15.73;;;7.57;;
6388;SDS011;3227;42.654;23.360;2024-01-07T07:40:04;14.47;;;7.20;;
6388;SDS011;3227;42.654;23.360;2024-01-07T07:42:36;14.23;;;8.40;;
6388;SDS011;3227;42.654;23.360;2024-01-07T07:45:03;13.30;;;8.10;;
6388;SDS011;3227;42.654;23.360;2024-01-07T07:47:32;12.60;;;7.50;;
6388;SDS011;3227;42.654;23.360;2024-01-07T07:49:59;11.87;;;7.37;;
6388;SDS011;3227;42.654;23.360;2024-01-07T07:52:27;14.73;;;8.07;;
6388;SDS011;3227;42.654;23.360;2024-01-07T07:54:54;12.27;;;7.30;;
6388;SDS011;3227;42.654;23.360;2024-01-07T07:57:21;11.17;;;7.03;;
6388;SDS011;3227;42.654;23.360;2024-01-07T07:59:50;9.73;;;6.13;;
6388;SDS011;3227;42.654;23.360;2024-01-07T08:02:18;12.47;;;6.17;;
6388;SDS011;3227;42.654;23.360;2024-01-07T08:04:46;11.93;;;5.97;;
6388;SDS011;3227;42.654;23.360;2024-01-07T08:07:13;10.43;;;6.47;;
6388;SDS011;3227;42.654;23.360;2024-01-07T08:09:40;9.47;;;5.70;;
6388;SDS011;3227;42.654;23.360;2024-01-07T08:12:07;10.20;;;5.70;;
6388;SDS011;3227;42.654;23.360;2024-01-07T08:14:34;9.60;;;5.67;;
6388;SDS011;3227;42.654;23.360;2024-01-07T08:17:00;10.47;;;4.77;;
6388;SDS011;3227;42.654;23.360;2024-01-07T08:19:29;10.27;;;5.63;;
6388;SDS011;3227;42.654;23.360;2024-01-07T08:21:58;14.97;;;5.80;;
6388;SDS011;3227;42.654;23.360;2024-01-07T08:24:24;10.40;;;5.70;;
6388;SDS011;3227;42.654;23.360;2024-01-07T08:26:51;10.47;;;5.53;;
6388;SDS011;3227;42.654;23.360;2024-01-07T08:29:18;10.17;;;5.20;;
6388;SDS011;3227;42.654;23.360;2024-01-07T08:31:45;11.37;;;6.57;;
6388;SDS011;3227;42.654;23.360;2024-01-07T08:34:12;10.70;;;5.60;;
6388;SDS011;3227;42.654;23.360;2024-01-07T08:36:40;9.57;;;5.47;;
6388;SDS011;3227;42.654;23.360;2024-01-07T08:39:08;9.83;;;5.93;;
6388;SDS011;3227;42.654;23.360;2024-01-07T08:41:41;13.07;;;7.00;;
6388;SDS011;3227;42.654;23.360;2024-01-07T08:44:08;12.43;;;6.77;;
6388;SDS011;3227;42.654;23.360;2024-01-07T08:46:34;13.07;;;6.73;;
6388;SDS011;3227;42.654;23.360;2024-01-07T08:49:01;11.77;;;6.80;;
6388;SDS011;3227;42.654;23.360;2024-01-07T08:51:29;12.67;;;7.17;;
6388;SDS011;3227;42.654;23.360;2024-01-07T08:56:25;12.77;;;6.90;;
6388;SDS011;3227;42.654;23.360;2024-01-07T08:58:52;12.50;;;7.90;;
6388;SDS011;3227;42.654;23.360;2024-01-07T09:01:24;15.77;;;7.87;;
6388;SDS011;3227;42.654;23.360;2024-01-07T09:03:50;12.53;;;7.67;;
6388;SDS011;3227;42.654;23.360;2024-01-07T09:06:17;14.70;;;7.63;;
6388;SDS011;3227;42.654;23.360;2024-01-07T09:08:44;13.07;;;7.80;;
6388;SDS011;3227;42.654;23.360;2024-01-07T09:11:11;13.03;;;8.13;;
6388;SDS011;3227;42.654;23.360;2024-01-07T09:13:39;17.13;;;8.50;;
6388;SDS011;3227;42.654;23.360;2024-01-07T09:16:07;15.60;;;8.27;;
6388;SDS011;3227;42.654;23.360;2024-01-07T09:18:36;13.67;;;8.50;;
6388;SDS011;3227;42.654;23.360;2024-01-07T09:21:03;14.00;;;8.83;;
6388;SDS011;3227;42.654;23.360;2024-01-07T09:23:31;14.80;;;8.00;;
6388;SDS011;3227;42.654;23.360;2024-01-07T09:25:58;15.73;;;7.93;;
6388;SDS011;3227;42.654;23.360;2024-01-07T09:28:25;15.97;;;7.67;;
6388;SDS011;3227;42.654;23.360;2024-01-07T09:30:53;12.73;;;6.77;;
6388;SDS011;3227;42.654;23.360;2024-01-07T09:33:20;13.23;;;7.73;;
6388;SDS011;3227;42.654;23.360;2024-01-07T09:35:48;13.13;;;7.43;;
6388;SDS011;3227;42.654;23.360;2024-01-07T09:38:15;11.10;;;6.60;;
6388;SDS011;3227;42.654;23.360;2024-01-07T09:40:42;12.37;;;7.00;;
6388;SDS011;3227;42.654;23.360;2024-01-07T09:43:09;10.13;;;7.00;;
6388;SDS011;3227;42.654;23.360;2024-01-07T09:45:36;9.67;;;6.53;;
6388;SDS011;3227;42.654;23.360;2024-01-07T09:48:06;12.20;;;7.55;;
6388;SDS011;3227;42.654;23.360;2024-01-07T09:50:35;11.53;;;6.37;;
6388;SDS011;3227;42.654;23.360;2024-01-07T09:55:52;9.70;;;6.03;;
6388;SDS011;3227;42.654;23.360;2024-01-07T09:58:28;9.77;;;5.95;;
6388;SDS011;3227;42.654;23.360;2024-01-07T10:00:54;9.00;;;4.93;;
6388;SDS011;3227;42.654;23.360;2024-01-07T10:03:23;8.73;;;5.37;;
6388;SDS011;3227;42.654;23.360;2024-01-07T10:05:53;7.13;;;4.43;;
6388;SDS011;3227;42.654;23.360;2024-01-07T10:08:20;8.17;;;4.90;;
6388;SDS011;3227;42.654;23.360;2024-01-07T10:10:48;8.80;;;4.57;;
6388;SDS011;3227;42.654;23.360;2024-01-07T10:13:15;8.87;;;4.67;;
6388;SDS011;3227;42.654;23.360;2024-01-07T10:15:41;10.30;;;4.67;;
6388;SDS011;3227;42.654;23.360;2024-01-07T10:18:08;7.50;;;4.03;;
6388;SDS011;3227;42.654;23.360;2024-01-07T10:20:36;7.37;;;4.23;;
6388;SDS011;3227;42.654;23.360;2024-01-07T10:26:25;8.70;;;4.90;;
6388;SDS011;3227;42.654;23.360;2024-01-07T10:28:52;10.77;;;4.80;;
6388;SDS011;3227;42.654;23.360;2024-01-07T10:31:19;7.10;;;4.67;;
6388;SDS011;3227;42.654;23.360;2024-01-07T10:33:46;9.20;;;4.60;;
6388;SDS011;3227;42.654;23.360;2024-01-07T10:36:14;11.53;;;5.20;;
6388;SDS011;3227;42.654;23.360;2024-01-07T10:38:42;11.55;;;5.75;;
6388;SDS011;3227;42.654;23.360;2024-01-07T10:44:33;10.60;;;5.93;;
6388;SDS011;3227;42.654;23.360;2024-01-07T10:47:00;8.57;;;5.67;;
6388;SDS011;3227;42.654;23.360;2024-01-07T10:49:32;11.93;;;6.40;;
6388;SDS011;3227;42.654;23.360;2024-01-07T10:52:04;11.53;;;5.73;;
6388;SDS011;3227;42.654;23.360;2024-01-07T10:54:34;9.90;;;5.93;;
6388;SDS011;3227;42.654;23.360;2024-01-07T10:57:04;13.93;;;5.97;;
6388;SDS011;3227;42.654;23.360;2024-01-07T10:59:39;10.77;;;5.67;;
6388;SDS011;3227;42.654;23.360;2024-01-07T11:02:07;9.97;;;5.67;;
6388;SDS011;3227;42.654;23.360;2024-01-07T11:04:37;8.33;;;4.20;;
6388;SDS011;3227;42.654;23.360;2024-01-07T11:07:14;8.50;;;4.13;;
6388;SDS011;3227;42.654;23.360;2024-01-07T11:09:47;7.40;;;3.90;;
6388;SDS011;3227;42.654;23.360;2024-01-07T11:12:22;8.20;;;4.10;;
6388;SDS011;3227;42.654;23.360;2024-01-07T11:14:49;6.30;;;3.70;;
6388;SDS011;3227;42.654;23.360;2024-01-07T11:20:07;8.87;;;3.93;;
6388;SDS011;3227;42.654;23.360;2024-01-07T11:22:50;6.27;;;3.57;;
6388;SDS011;3227;42.654;23.360;2024-01-07T11:25:30;5.73;;;3.37;;
6388;SDS011;3227;42.654;23.360;2024-01-07T11:27:58;11.50;;;4.13;;
6388;SDS011;3227;42.654;23.360;2024-01-07T11:30:27;8.87;;;4.07;;
6388;SDS011;3227;42.654;23.360;2024-01-07T11:35:57;8.17;;;4.43;;
6388;SDS011;3227;42.654;23.360;2024-01-07T11:38:29;7.87;;;3.60;;
6388;SDS011;3227;42.654;23.360;2024-01-07T11:41:11;8.13;;;3.83;;
6388;SDS011;3227;42.654;23.360;2024-01-07T11:43:52;8.43;;;3.83;;
6388;SDS011;3227;42.654;23.360;2024-01-07T11:46:20;9.43;;;4.13;;
6388;SDS011;3227;42.654;23.360;2024-01-07T11:48:47;8.20;;;3.80;;
6388;SDS011;3227;42.654;23.360;2024-01-07T11:51:14;5.40;;;3.27;;
6388;SDS011;3227;42.654;23.360;2024-01-07T11:53:42;6.57;;;3.90;;
6388;SDS011;3227;42.654;23.360;2024-01-07T11:56:12;7.83;;;3.83;;
6388;SDS011;3227;42.654;23.360;2024-01-07T11:58:39;6.83;;;3.27;;
6388;SDS011;3227;42.654;23.360;2024-01-07T12:01:07;6.70;;;3.37;;
6388;SDS011;3227;42.654;23.360;2024-01-07T12:03:33;7.60;;;3.60;;
6388;SDS011;3227;42.654;23.360;2024-01-07T12:06:00;8.10;;;4.00;;
6388;SDS011;3227;42.654;23.360;2024-01-07T12:08:27;8.00;;;4.18;;
6388;SDS011;3227;42.654;23.360;2024-01-07T12:10:56;8.70;;;3.93;;
6388;SDS011;3227;42.654;23.360;2024-01-07T12:13:22;6.97;;;3.77;;
6388;SDS011;3227;42.654;23.360;2024-01-07T12:15:50;9.68;;;4.20;;
6388;SDS011;3227;42.654;23.360;2024-01-07T12:18:17;11.23;;;4.50;;
6388;SDS011;3227;42.654;23.360;2024-01-07T13:18:48;7.53;;;4.20;;
6388;SDS011;3227;42.654;23.360;2024-01-07T13:21:15;8.57;;;4.80;;
6388;SDS011;3227;42.654;23.360;2024-01-07T13:23:43;11.07;;;4.77;;
6388;SDS011;3227;42.654;23.360;2024-01-07T13:26:09;9.97;;;5.07;;
6388;SDS011;3227;42.654;23.360;2024-01-07T13:28:36;9.90;;;5.10;;
6388;SDS011;3227;42.654;23.360;2024-01-07T13:31:03;7.90;;;4.40;;
6388;SDS011;3227;42.654;23.360;2024-01-07T13:33:31;11.38;;;4.80;;
6388;SDS011;3227;42.654;23.360;2024-01-07T13:35:59;9.57;;;4.60;;
6388;SDS011;3227;42.654;23.360;2024-01-07T13:38:28;11.00;;;4.60;;
6388;SDS011;3227;42.654;23.360;2024-01-07T13:40:56;7.97;;;4.33;;
6388;SDS011;3227;42.654;23.360;2024-01-07T13:43:22;12.33;;;4.93;;
6388;SDS011;3227;42.654;23.360;2024-01-07T13:45:50;9.90;;;4.93;;
6388;SDS011;3227;42.654;23.360;2024-01-07T13:48:17;10.27;;;5.20;;
6388;SDS011;3227;42.654;23.360;2024-01-07T13:50:44;12.30;;;5.90;;
6388;SDS011;3227;42.654;23.360;2024-01-07T13:53:14;11.55;;;5.70;;
6388;SDS011;3227;42.654;23.360;2024-01-07T13:55:41;9.23;;;5.20;;
6388;SDS011;3227;42.654;23.360;2024-01-07T14:08:29;14.63;;;4.77;;
6388;SDS011;3227;42.654;23.360;2024-01-07T14:10:56;8.60;;;4.43;;
6388;SDS011;3227;42.654;23.360;2024-01-07T14:13:23;9.43;;;5.00;;
6388;SDS011;3227;42.654;23.360;2024-01-07T14:15:50;10.13;;;5.43;;
6388;SDS011;3227;42.654;23.360;2024-01-07T14:18:17;10.17;;;5.13;;
6388;SDS011;3227;42.654;23.360;2024-01-07T14:20:46;10.73;;;4.80;;
6388;SDS011;3227;42.654;23.360;2024-01-07T14:23:13;16.40;;;5.60;;
6388;SDS011;3227;42.654;23.360;2024-01-07T14:25:42;14.30;;;5.50;;
6388;SDS011;3227;42.654;23.360;2024-01-07T14:28:08;15.40;;;5.80;;
6388;SDS011;3227;42.654;23.360;2024-01-07T14:30:36;13.23;;;4.87;;
6388;SDS011;3227;42.654;23.360;2024-01-07T14:33:03;9.10;;;4.77;;
6388;SDS011;3227;42.654;23.360;2024-01-07T14:35:30;9.47;;;5.10;;
6388;SDS011;3227;42.654;23.360;2024-01-07T14:37:58;10.52;;;5.95;;
6388;SDS011;3227;42.654;23.360;2024-01-07T14:40:25;11.27;;;6.20;;
6388;SDS011;3227;42.654;23.360;2024-01-07T14:42:53;12.30;;;6.75;;
6388;SDS011;3227;42.654;23.360;2024-01-07T14:45:23;13.65;;;6.63;;
6388;SDS011;3227;42.654;23.360;2024-01-07T14:47:50;9.90;;;5.60;;
6388;SDS011;3227;42.654;23.360;2024-01-07T14:50:17;9.93;;;5.13;;
6388;SDS011;3227;42.654;23.360;2024-01-07T14:52:44;12.47;;;5.23;;
6388;SDS011;3227;42.654;23.360;2024-01-07T14:55:11;10.20;;;5.30;;
6388;SDS011;3227;42.654;23.360;2024-01-07T14:57:38;12.07;;;5.83;;
6388;SDS011;3227;42.654;23.360;2024-01-07T15:00:07;9.70;;;5.70;;
6388;SDS011;3227;42.654;23.360;2024-01-07T15:02:40;10.73;;;5.87;;
6388;SDS011;3227;42.654;23.360;2024-01-07T15:05:07;12.65;;;7.18;;
6388;SDS011;3227;42.654;23.360;2024-01-07T15:07:34;9.70;;;5.93;;
6388;SDS011;3227;42.654;23.360;2024-01-07T15:10:01;14.80;;;6.90;;
6388;SDS011;3227;42.654;23.360;2024-01-07T15:12:28;11.30;;;6.43;;
6388;SDS011;3227;42.654;23.360;2024-01-07T15:15:00;12.63;;;7.43;;
6388;SDS011;3227;42.654;23.360;2024-01-07T15:17:31;14.50;;;8.03;;
6388;SDS011;3227;42.654;23.360;2024-01-07T15:19:58;12.73;;;7.73;;
6388;SDS011;3227;42.654;23.360;2024-01-07T15:22:24;14.50;;;7.80;;
6388;SDS011;3227;42.654;23.360;2024-01-07T15:24:51;12.98;;;7.35;;
6388;SDS011;3227;42.654;23.360;2024-01-07T15:27:18;15.03;;;7.90;;
6388;SDS011;3227;42.654;23.360;2024-01-07T15:29:45;16.80;;;8.07;;
6388;SDS011;3227;42.654;23.360;2024-01-07T15:32:12;14.20;;;7.97;;
6388;SDS011;3227;42.654;23.360;2024-01-07T15:34:41;14.57;;;7.87;;
6388;SDS011;3227;42.654;23.360;2024-01-07T15:37:08;13.40;;;8.20;;
6388;SDS011;3227;42.654;23.360;2024-01-07T15:39:35;15.90;;;8.63;;
6388;SDS011;3227;42.654;23.360;2024-01-07T15:42:02;15.07;;;8.43;;
6388;SDS011;3227;42.654;23.360;2024-01-07T15:44:29;14.43;;;8.70;;
6388;SDS011;3227;42.654;23.360;2024-01-07T15:46:56;12.10;;;7.40;;
6388;SDS011;3227;42.654;23.360;2024-01-07T15:49:23;14.47;;;8.07;;
6388;SDS011;3227;42.654;23.360;2024-01-07T15:51:51;13.43;;;7.67;;
6388;SDS011;3227;42.654;23.360;2024-01-07T15:54:18;12.00;;;7.47;;
6388;SDS011;3227;42.654;23.360;2024-01-07T15:56:45;12.23;;;7.33;;
6388;SDS011;3227;42.654;23.360;2024-01-07T15:59:12;14.33;;;7.93;;
6388;SDS011;3227;42.654;23.360;2024-01-07T16:01:45;13.33;;;8.63;;
6388;SDS011;3227;42.654;23.360;2024-01-07T16:04:12;14.60;;;8.80;;
6388;SDS011;3227;42.654;23.360;2024-01-07T16:06:39;15.23;;;8.27;;
6388;SDS011;3227;42.654;23.360;2024-01-07T16:09:08;13.63;;;8.00;;
6388;SDS011;3227;42.654;23.360;2024-01-07T16:11:35;14.10;;;8.27;;
6388;SDS011;3227;42.654;23.360;2024-01-07T16:14:01;14.43;;;8.30;;
6388;SDS011;3227;42.654;23.360;2024-01-07T16:16:29;14.47;;;8.87;;
6388;SDS011;3227;42.654;23.360;2024-01-07T16:18:56;16.10;;;9.38;;
6388;SDS011;3227;42.654;23.360;2024-01-07T16:21:24;18.30;;;9.03;;
6388;SDS011;3227;42.654;23.360;2024-01-07T16:23:51;16.00;;;9.07;;
6388;SDS011;3227;42.654;23.360;2024-01-07T16:26:19;17.67;;;9.07;;
6388;SDS011;3227;42.654;23.360;2024-01-07T16:28:46;17.40;;;9.90;;
6388;SDS011;3227;42.654;23.360;2024-01-07T16:31:15;19.03;;;10.07;;